Tabellarische Übersicht vom Samstag, den 14.12.2019

Oder anderes Datum wählen:






max 6,0°C 93,0% 4,4°C 984,7hPa 6,0°C 0,0km/h (0Bft) 0,0km/h 0° (N) ∑5,3l/m² 0,000klx ∑193,9min
min 4,1°C 86,0% 3,0°C 980,1hPa 4,0°C 0,0km/h (0Bft) 0,0km/h 0° (N) ∑5,3l/m² 0,000klx ∑193,9min
Ø 5,4°C 90,0% 3,9°C 982,7hPa 5,0°C 0,0km/h (0Bft) 0,0km/h 0° (N) ∑5,3l/m² 0,000klx ∑193,9min
Zeit Temperatur Luftfeuchte Taupunkt Luftdruck Windchill Windböen Windgeschwindigkeit Windrichtung Regen Helligkeit Regenzeit
06:20 4,1°C 93,1% 3,1°C 980,2hPa 4,1°C 0,0km/h (0Bft) 0,0km/h 0,1l/m² 0,000klx 5,0min
06:15 4,1°C 92,9% 3,0°C 980,1hPa 4,1°C 0,0km/h (0Bft) 0,0km/h 0,1l/m² 0,000klx 4,8min
06:10 4,1°C 93,1% 3,1°C 980,1hPa 4,1°C 0,0km/h (0Bft) 0,0km/h 0,1l/m² 0,000klx 5,0min
06:05 4,1°C 93,0% 3,1°C 980,1hPa 4,1°C 0,0km/h (0Bft) 0,0km/h 0,1l/m² 0,000klx 5,0min
06:00 4,1°C 93,0% 3,1°C 980,2hPa 4,1°C 0,0km/h (0Bft) 0,0km/h 0,1l/m² 0,000klx 5,0min
05:55 4,2°C 92,9% 3,1°C 980,3hPa 4,2°C 0,0km/h (0Bft) 0,0km/h 0,1l/m² 0,000klx 5,0min
05:50 4,2°C 92,9% 3,2°C 980,4hPa 4,2°C 0,0km/h (0Bft) 0,0km/h 0,0l/m² 0,000klx 5,0min
05:45 4,2°C 92,8% 3,2°C 980,5hPa 4,2°C 0,0km/h (0Bft) 0,0km/h 0,1l/m² 0,000klx 5,0min
05:40 4,3°C 92,8% 3,2°C 980,6hPa 4,3°C 0,0km/h (0Bft) 0,0km/h 0,2l/m² 0,000klx 5,0min
05:35 4,3°C 92,6% 3,3°C 980,7hPa 4,3°C 0,0km/h (0Bft) 0,0km/h 0,2l/m² 0,000klx 5,0min
05:30 4,4°C 92,7% 3,3°C 980,7hPa 4,4°C 0,0km/h (0Bft) 0,0km/h 0,3l/m² 0,000klx 5,0min
05:25 4,5°C 92,6% 3,4°C 980,8hPa 4,5°C 0,0km/h (0Bft) 0,0km/h 0,4l/m² 0,000klx 5,0min
05:20 4,5°C 92,7% 3,4°C 981,0hPa 4,5°C 0,0km/h (0Bft) 0,0km/h 0,3l/m² 0,000klx 5,0min
05:15 4,6°C 92,7% 3,5°C 981,1hPa 4,6°C 0,0km/h (0Bft) 0,0km/h 0,4l/m² 0,000klx 5,0min
05:10 4,6°C 92,8% 3,6°C 981,1hPa 4,6°C 0,0km/h (0Bft) 0,0km/h 0,3l/m² 0,000klx 5,0min
05:05 4,7°C 92,8% 3,6°C 981,2hPa 4,7°C 0,0km/h (0Bft) 0,0km/h 0,2l/m² 0,000klx 5,0min
05:00 4,8°C 92,7% 3,7°C 981,3hPa 4,8°C 0,0km/h (0Bft) 0,0km/h 0,3l/m² 0,000klx 5,0min
04:55 4,8°C 92,4% 3,7°C 981,3hPa 4,8°C 0,0km/h (0Bft) 0,0km/h 0,4l/m² 0,000klx 5,0min
04:50 4,9°C 92,3% 3,8°C 981,4hPa 4,9°C 0,0km/h (0Bft) 0,0km/h 0,2l/m² 0,000klx 5,0min
04:45 5,0°C 92,3% 3,8°C 981,5hPa 5,0°C 0,0km/h (0Bft) 0,0km/h 0,3l/m² 0,000klx 5,0min
04:40 5,1°C 92,1% 3,9°C 981,6hPa 5,1°C 0,0km/h (0Bft) 0,0km/h 0,2l/m² 0,000klx 5,0min
04:35 5,2°C 91,8% 3,9°C 981,5hPa 5,2°C 0,0km/h (0Bft) 0,0km/h 0,2l/m² 0,000klx 5,0min
04:30 5,3°C 91,3% 4,0°C 981,5hPa 5,3°C 0,0km/h (0Bft) 0,0km/h 0,1l/m² 0,000klx 5,0min
04:25 5,4°C 90,8% 4,0°C 981,6hPa 5,4°C 0,0km/h (0Bft) 0,0km/h 0,1l/m² 0,000klx 5,0min
04:20 5,4°C 90,9% 4,0°C 981,6hPa 5,4°C 0,0km/h (0Bft) 0,0km/h 0,1l/m² 0,000klx 5,0min
04:15 5,4°C 90,9% 4,0°C 981,6hPa 5,4°C 0,0km/h (0Bft) 0,0km/h 0,0l/m² 0,000klx 5,0min
04:10 5,4°C 91,1% 4,0°C 981,8hPa 5,4°C 0,0km/h (0Bft) 0,0km/h 0,1l/m² 0,000klx 5,0min
04:05 5,4°C 90,7% 4,0°C 982,0hPa 5,4°C 0,0km/h (0Bft) 0,0km/h 0,1l/m² 0,000klx 5,0min
04:00 5,5°C 90,5% 4,0°C 982,1hPa 5,5°C 0,0km/h (0Bft) 0,0km/h 0,1l/m² 0,000klx 5,0min
03:55 5,6°C 89,5% 4,0°C 982,2hPa 5,6°C 0,0km/h (0Bft) 0,0km/h 0,1l/m² 0,000klx 5,0min
03:50 5,8°C 88,0% 4,0°C 982,3hPa 5,8°C 0,0km/h (0Bft) 0,0km/h 0,0l/m² 0,000klx 5,0min
03:45 5,8°C 87,9% 4,0°C 982,4hPa 5,8°C 0,0km/h (0Bft) 0,0km/h 0,0l/m² 0,000klx 5,0min
03:40 5,9°C 87,2% 3,9°C 982,5hPa 5,9°C 0,0km/h (0Bft) 0,0km/h 0,0l/m² 0,000klx 3,0min
03:35 6,0°C 86,4% 3,9°C 982,6hPa 6,0°C 0,0km/h (0Bft) 0,0km/h 0,0l/m² 0,000klx 0,0min
03:30 5,9°C 87,6% 4,0°C 982,6hPa 5,9°C 0,0km/h (0Bft) 0,0km/h 0,0l/m² 0,000klx 0,9min
03:25 5,9°C 87,6% 4,0°C 982,7hPa 5,9°C 0,0km/h (0Bft) 0,0km/h 0,0l/m² 0,000klx 2,2min
03:20 5,9°C 87,9% 4,0°C 982,8hPa 5,9°C 0,0km/h (0Bft) 0,0km/h 0,0l/m² 0,000klx 0,0min
03:15 5,9°C 88,1% 4,0°C 982,9hPa 5,9°C 0,0km/h (0Bft) 0,0km/h 0,0l/m² 0,000klx 2,3min
03:10 5,8°C 88,5% 4,1°C 983,0hPa 5,8°C 0,0km/h (0Bft) 0,0km/h 0,0l/m² 0,000klx 5,0min
03:05 5,8°C 88,6% 4,1°C 983,1hPa 5,8°C 0,0km/h (0Bft) 0,0km/h 0,0l/m² 0,000klx 5,0min
03:00 5,9°C 88,3% 4,1°C 983,1hPa 5,9°C 0,0km/h (0Bft) 0,0km/h 0,0l/m² 0,000klx 5,0min
02:55 5,9°C 88,0% 4,1°C 983,2hPa 5,9°C 0,0km/h (0Bft) 0,0km/h 0,0l/m² 0,000klx 5,0min
02:50 6,0°C 87,0% 4,0°C 983,3hPa 6,0°C 0,0km/h (0Bft) 0,0km/h 0,0l/m² 0,000klx 5,0min
02:45 6,0°C 86,9% 4,0°C 983,3hPa 6,0°C 0,0km/h (0Bft) 0,0km/h 0,0l/m² 0,000klx 0,7min
02:40 6,0°C 87,4% 4,0°C 983,4hPa 6,0°C 0,0km/h (0Bft) 0,0km/h 0,0l/m² 0,000klx 0,0min
02:35 5,9°C 88,3% 4,1°C 983,5hPa 5,9°C 0,0km/h (0Bft) 0,0km/h 0,0l/m² 0,000klx 0,0min
02:30 5,8°C 89,1% 4,1°C 983,6hPa 5,8°C 0,0km/h (0Bft) 0,0km/h 0,0l/m² 0,000klx 0,0min
02:25 5,9°C 88,0% 4,1°C 983,6hPa 5,9°C 0,0km/h (0Bft) 0,0km/h 0,0l/m² 0,000klx 0,0min
02:20 6,0°C 87,7% 4,1°C 983,6hPa 6,0°C 0,0km/h (0Bft) 0,0km/h 0,0l/m² 0,000klx 0,0min
02:15 5,9°C 88,3% 4,1°C 983,7hPa 5,9°C 0,0km/h (0Bft) 0,0km/h 0,0l/m² 0,000klx 0,0min
02:10 5,9°C 88,2% 4,1°C 983,7hPa 5,9°C 0,0km/h (0Bft) 0,0km/h 0,0l/m² 0,000klx 0,0min
02:05 5,9°C 88,4% 4,2°C 983,8hPa 5,9°C 0,0km/h (0Bft) 0,0km/h 0,0l/m² 0,000klx 0,0min
02:00 5,9°C 88,8% 4,2°C 983,8hPa 5,9°C 0,0km/h (0Bft) 0,0km/h 0,0l/m² 0,000klx 0,0min
01:55 5,9°C 88,6% 4,2°C 983,9hPa 5,9°C 0,0km/h (0Bft) 0,0km/h 0,0l/m² 0,000klx 0,0min
01:50 5,8°C 89,2% 4,2°C 983,9hPa 5,8°C 0,0km/h (0Bft) 0,0km/h 0,1l/m² 0,000klx 0,0min
01:45 5,8°C 89,4% 4,2°C 983,9hPa 5,8°C 0,0km/h (0Bft) 0,0km/h 0,0l/m² 0,000klx 0,0min
01:40 5,9°C 89,1% 4,2°C 983,9hPa 5,9°C 0,0km/h (0Bft) 0,0km/h 0,0l/m² 0,000klx 0,0min
01:35 5,9°C 89,1% 4,3°C 983,9hPa 5,9°C 0,0km/h (0Bft) 0,0km/h 0,0l/m² 0,000klx 0,0min
01:30 5,9°C 89,6% 4,3°C 984,0hPa 5,9°C 0,0km/h (0Bft) 0,0km/h 0,0l/m² 0,000klx 0,0min
01:25 6,0°C 89,4% 4,4°C 984,1hPa 6,0°C 0,0km/h (0Bft) 0,0km/h 0,0l/m² 0,000klx 0,0min
01:20 6,0°C 89,3% 4,4°C 984,2hPa 6,0°C 0,0km/h (0Bft) 0,0km/h 0,0l/m² 0,000klx 0,0min
01:15 5,9°C 89,8% 4,4°C 984,3hPa 5,9°C 0,0km/h (0Bft) 0,0km/h 0,0l/m² 0,000klx 0,0min
01:10 5,9°C 90,2% 4,4°C 984,4hPa 5,9°C 0,0km/h (0Bft) 0,0km/h 0,0l/m² 0,000klx 0,0min
01:05 5,9°C 89,9% 4,3°C 984,4hPa 5,9°C 0,0km/h (0Bft) 0,0km/h 0,0l/m² 0,000klx 0,0min
01:00 5,9°C 89,9% 4,3°C 984,4hPa 5,9°C 0,0km/h (0Bft) 0,0km/h 0,0l/m² 0,000klx 0,0min
00:55 5,9°C 89,5% 4,3°C 984,4hPa 5,9°C 0,0km/h (0Bft) 0,0km/h 0,0l/m² 0,000klx 0,0min
00:50 5,7°C 90,1% 4,2°C 984,5hPa 5,7°C 0,0km/h (0Bft) 0,0km/h 0,0l/m² 0,000klx 0,0min
00:45 5,7°C 90,0% 4,2°C 984,5hPa 5,7°C 0,0km/h (0Bft) 0,0km/h 0,0l/m² 0,000klx 0,0min
00:40 5,7°C 90,1% 4,2°C 984,5hPa 5,7°C 0,0km/h (0Bft) 0,0km/h 0,0l/m² 0,000klx 0,0min
00:35 5,5°C 90,5% 4,1°C 984,3hPa 5,5°C 0,0km/h (0Bft) 0,0km/h 0,0l/m² 0,000klx 0,0min
00:30 5,5°C 90,5% 4,1°C 984,1hPa 5,5°C 0,0km/h (0Bft) 0,0km/h 0,0l/m² 0,000klx 0,0min
00:25 5,7°C 89,8% 4,1°C 984,0hPa 5,7°C 0,0km/h (0Bft) 0,0km/h 0,0l/m² 0,000klx 0,0min
00:20 5,7°C 90,0% 4,2°C 984,1hPa 5,7°C 0,0km/h (0Bft) 0,0km/h 0,0l/m² 0,000klx 0,0min
00:15 5,8°C 89,9% 4,3°C 984,2hPa 5,8°C 0,0km/h (0Bft) 0,0km/h 0,0l/m² 0,000klx 0,0min
00:10 5,8°C 90,0% 4,3°C 984,4hPa 5,8°C 0,0km/h (0Bft) 0,0km/h 0,0l/m² 0,000klx 0,0min
00:05 5,7°C 90,8% 4,3°C 984,7hPa 5,7°C 0,0km/h (0Bft) 0,0km/h 0,0l/m² 0,000klx 0,0min
00:00 5,8°C 90,3% 4,4°C 984,7hPa 5,8°C 0,0km/h (0Bft) 0,0km/h 0,0l/m² 0,000klx 0,0min

Aktuelle Wetterdaten

14.12.2019 06:20 Uhr